tititudorancea.com
Station Historical Data
Daily Summary for February 9, 2019 Units:  Metric    English   Both
« Previous Day
Next Day »
Daily Weekly Monthly Yearly Custom
  High: Low: Average:
Temperature: -17.8 °C 10.7 °C 13.8 °C
Dew Point: -17.8 °C 2.2 °C 7 °C
Humidity: Humidity % 37 % 65 %
Wind Speed: 0 km/h 0 km/h 19 km/h
Wind Gust: 0 km/h - -
Wind:- - WSW
Pressure: 0 hPa 998.2 hPa -
Precipitation: 2.54 mm    
Historical Graphs
 
 
Ararat weather Find more about Weather in Ararat, AU


 



 


Tabular Data for February 9, 2019
Time Temperature Dew Point Pressure Wind Wind Speed Wind Gust Humidity Rainfall Rate (Hourly)
-17.8 °C -17.8 °C 0 hPa Calm     Humidity % 0 mm
00:04 13.7 °C 7.4 °C 1004.3 hPa SSW 9.3 km/h 5.3 km/h 66 % 0 mm
00:09 13.7 °C 7.3 °C 1003.9 hPa SSW 7.4 km/h 1.4 km/h 65 % 0 mm
00:14 13.7 °C 7.1 °C 1003.9 hPa SW 16.7 km/h 6.4 km/h 64 % 0 mm
00:19 13.7 °C 7.2 °C 1003.9 hPa SSW 1.9 km/h 0.3 km/h 65 % 0 mm
00:24 13.6 °C 6.9 °C 1003.9 hPa Calm     64 % 0 mm
00:29 13.6 °C 7.2 °C 1003.6 hPa SW 7.4 km/h 0.5 km/h 65 % 0 mm
00:34 13.5 °C 7.1 °C 1003.6 hPa SW 11.1 km/h 4.8 km/h 65 % 0 mm
00:39 13.4 °C 7.2 °C 1003.6 hPa SW 5.6 km/h 3.9 km/h 66 % 0 mm
00:44 13.3 °C 7.1 °C 1003.6 hPa SW 6.4 km/h 2.1 km/h 66 % 0 mm
00:49 13.2 °C 7 °C 1003.6 hPa SW 5.6 km/h 2.4 km/h 66 % 0 mm
00:54 13.2 °C 7.2 °C 1003.3 hPa Calm     67 % 0 mm
00:59 13.1 °C 7.1 °C 1003.3 hPa SW 1.6 km/h 0.3 km/h 67 % 0 mm
01:04 13.1 °C 7.1 °C 1003.3 hPa SW 9.3 km/h 4.3 km/h 67 % 0 mm
01:09 13 °C 7.2 °C 1002.9 hPa Calm     68 % 0 mm
01:14 12.9 °C 6.9 °C 1002.9 hPa SW 3.7 km/h 0.2 km/h 67 % 0 mm
01:19 12.8 °C 7.1 °C 1002.9 hPa Calm     68 % 0 mm
01:24 12.7 °C 6.9 °C 1002.9 hPa SW 5.6 km/h 1.4 km/h 68 % 0 mm
01:29 12.6 °C 7.1 °C 1002.9 hPa Calm     69 % 0 mm
01:34 12.5 °C 6.9 °C 1002.6 hPa SW 1.9 km/h   69 % 0 mm
01:39 12.4 °C 7.1 °C 1002.9 hPa SW 3.7 km/h 1.1 km/h 70 % 0 mm
01:44 12.4 °C 7.1 °C 1002.6 hPa SW 1.6 km/h 0.3 km/h 70 % 0 mm
01:49 12.4 °C 7.1 °C 1002.6 hPa Calm     70 % 0 mm
01:54 12.4 °C 7.3 °C 1002.6 hPa Calm     71 % 0 mm
01:59 12.2 °C 7.1 °C 1002.6 hPa Calm     71 % 0 mm
02:04 12.1 °C 6.9 °C 1002.3 hPa Calm     71 % 0 mm
02:09 11.8 °C 6.7 °C 1002.3 hPa Calm     71 % 0 mm
02:14 11.7 °C 6.8 °C 1001.9 hPa Calm     72 % 0 mm
02:19 11.5 °C 6.8 °C 1001.9 hPa Calm     73 % 0 mm
02:24 11.4 °C 7.3 °C 1001.9 hPa North 3.2 km/h 1.8 km/h 76 % 0 mm
02:29 11.4 °C 6.9 °C 1001.6 hPa SW 3.7 km/h 2.4 km/h 74 % 0 mm
02:34 11.4 °C 7.1 °C 1001.6 hPa North 3.7 km/h 1.9 km/h 75 % 0 mm
02:39 11.4 °C 7.3 °C 1001.6 hPa North 4.8 km/h 2.7 km/h 76 % 0 mm
02:44 11.4 °C 7.3 °C 1001.2 hPa SW 5.6 km/h 4.7 km/h 76 % 0 mm
02:49 11.4 °C 7.3 °C 1001.2 hPa North 7.4 km/h 6.4 km/h 76 % 0 mm
02:54 11.5 °C 7.4 °C 1001.2 hPa North 3.7 km/h 0.8 km/h 76 % 0 mm
02:59 11.4 °C 7.6 °C 1001.2 hPa SW 3.7 km/h 1.9 km/h 77 % 0 mm
03:04 11.3 °C 7.4 °C 1001.2 hPa SSW 4.8 km/h 3.2 km/h 77 % 0 mm
03:09 11.3 °C 7.4 °C 1000.9 hPa SSW 1.9 km/h 1.4 km/h 77 % 0 mm
03:14 11.2 °C 7.3 °C 1000.9 hPa SSW 3.7 km/h 0.8 km/h 77 % 0 mm
03:19 11.2 °C 7.3 °C 1000.9 hPa SW 3.2 km/h 1 km/h 77 % 0 mm
03:24 11 °C 7.3 °C 1000.9 hPa SW 3.7 km/h   78 % 0 mm
03:29 10.9 °C 7.2 °C 1000.9 hPa SW 1.9 km/h 1.1 km/h 78 % 0 mm
03:34 10.8 °C 7.3 °C 1000.9 hPa SW 3.7 km/h   79 % 0 mm
03:39 10.7 °C 7.2 °C 1000.9 hPa SW 3.7 km/h 1.4 km/h 79 % 0 mm
03:44 10.7 °C 7.2 °C 1000.9 hPa SW 1.6 km/h 0.3 km/h 79 % 0 mm
03:49 10.7 °C 7.4 °C 1000.6 hPa SW 3.7 km/h 2.6 km/h 80 % 0 mm
03:54 10.8 °C 7.4 °C 1000.6 hPa SW 5.6 km/h 3.5 km/h 80 % 0 mm
03:59 11.2 °C 7.5 °C 1000.6 hPa SW 6.4 km/h 4.2 km/h 78 % 0 mm
04:04 11.6 °C 7.7 °C 1000.6 hPa SW 7.4 km/h 6.8 km/h 77 % 0 mm
04:09 11.9 °C 7.6 °C 1000.2 hPa SW 13 km/h 7.7 km/h 75 % 0 mm
04:14 12.3 °C 7.6 °C 1000.2 hPa SW 14.8 km/h 7.7 km/h 73 % 0 mm
04:19 12.7 °C 7.7 °C 1000.2 hPa WSW 5.6 km/h 6.8 km/h 72 % 0 mm
04:24 12.8 °C 7.7 °C 999.9 hPa WSW 9.7 km/h 6.6 km/h 71 % 0 mm
04:29 12.8 °C 7.9 °C 999.9 hPa North 12.9 km/h 9 km/h 72 % 0 mm
04:34 12.8 °C 7.9 °C 999.9 hPa WNW 11.1 km/h 6.6 km/h 72 % 0 mm
04:39 12.8 °C 7.9 °C 999.9 hPa West 9.7 km/h 7.4 km/h 72 % 0 mm
04:44 12.8 °C 7.9 °C 999.9 hPa WNW 13 km/h 8.4 km/h 72 % 0 mm
04:49 12.9 °C 8 °C 999.5 hPa WNW 18.5 km/h 9.8 km/h 72 % 0 mm
04:54 13 °C 8.1 °C 999.5 hPa North 13 km/h 10.3 km/h 72 % 0 mm
04:59 13.1 °C 8.1 °C 999.5 hPa NW 16.7 km/h 6.6 km/h 72 % 0 mm
05:04 13.1 °C 8.1 °C 999.5 hPa NW 9.3 km/h 5.1 km/h 72 % 0 mm
05:09 13 °C 8.1 °C 999.5 hPa NNE 14.8 km/h 6.3 km/h 72 % 0 mm
05:14 12.8 °C 7.9 °C 999.2 hPa NNE 7.4 km/h 2.9 km/h 72 % 0 mm
05:19 12.7 °C 7.9 °C 999.2 hPa NNE 9.7 km/h 6.3 km/h 73 % 0 mm
05:24 12.6 °C 7.8 °C 999.2 hPa NE 7.4 km/h 5.3 km/h 73 % 0 mm
05:29 12.4 °C 7.9 °C 999.2 hPa NNE 9.3 km/h 6.6 km/h 74 % 0 mm
05:34 12.3 °C 8 °C 999.2 hPa NNE 6.4 km/h 4.8 km/h 75 % 0 mm
05:39 12.3 °C 8.2 °C 999.2 hPa NNE 5.6 km/h 4.5 km/h 76 % 0 mm
05:44 12.3 °C 8.2 °C 998.9 hPa NNE 7.4 km/h 3.4 km/h 76 % 0 mm
05:49 12.3 °C 8.3 °C 998.9 hPa NNE 5.6 km/h 1.1 km/h 77 % 0 mm
05:54 12.4 °C 8.4 °C 998.9 hPa NNE 5.6 km/h 1 km/h 77 % 0 mm
05:59 12.4 °C 8.4 °C 999.2 hPa NW 20.4 km/h 9.8 km/h 77 % 0 mm
06:04 12.7 °C 8.8 °C 998.9 hPa WNW 18.5 km/h 8.9 km/h 77 % 0 mm
06:09 13 °C 8.9 °C 998.9 hPa NW 25.9 km/h 11.6 km/h 76 % 0 mm
06:14 13.1 °C 9 °C 998.9 hPa WNW 30.6 km/h 19.5 km/h 76 % 0 mm
06:19 13.3 °C 9 °C 998.9 hPa NW 25.9 km/h 20.6 km/h 75 % 0 mm
06:24 13.5 °C 9.2 °C 999.2 hPa NW 27.8 km/h 14.8 km/h 75 % 0 mm
06:29 13.6 °C 9.2 °C 999.2 hPa NW 24.1 km/h 10.5 km/h 75 % 0 mm
06:34 13.6 °C 9.1 °C 999.2 hPa NW 31.5 km/h 10.6 km/h 74 % 0 mm
06:39 13.6 °C 9.2 °C 999.2 hPa North 11.3 km/h 4.8 km/h 75 % 0 mm
06:44 13.5 °C 9.2 °C 998.9 hPa North 20.4 km/h 16.6 km/h 75 % 0 mm
06:49 13.6 °C 9.2 °C 998.9 hPa NNW 24.1 km/h 16.7 km/h 75 % 0 mm
06:54 13.6 °C 9.3 °C 998.9 hPa WNW 25.7 km/h 14.2 km/h 75 % 0 mm
06:59 13.7 °C 9.3 °C 998.9 hPa NW 18.5 km/h 11.3 km/h 75 % 0 mm
07:04 13.7 °C 9.3 °C 998.5 hPa NNW 20.4 km/h 9 km/h 75 % 0 mm
07:09 13.7 °C 9.3 °C 998.5 hPa North 14.8 km/h 10.3 km/h 75 % 0 mm
07:14 13.7 °C 9.5 °C 998.5 hPa North 11.1 km/h 10.5 km/h 76 % 0 mm
07:19 13.6 °C 9.4 °C 998.2 hPa North 20.4 km/h 13.8 km/h 76 % 0 mm
07:24 13.6 °C 9.4 °C 998.2 hPa North 18.5 km/h 9.5 km/h 76 % 0 mm
07:29 13.5 °C 9.3 °C 998.2 hPa NNW 24.1 km/h 15.1 km/h 76 % 0 mm
07:34 13.4 °C 9.4 °C 998.2 hPa NNW 16.7 km/h 13.5 km/h 77 % 0 mm
07:39 13.4 °C 9.7 °C 998.2 hPa NW 29.6 km/h 21.1 km/h 78 % 0 mm
07:44 13.6 °C 10.1 °C 998.2 hPa NW 24.1 km/h 17.7 km/h 79 % 0 mm
07:49 13.6 °C 10.1 °C 998.5 hPa North 14.8 km/h 12.2 km/h 79 % 0 mm
07:54 13.3 °C 9.6 °C 998.2 hPa North 22.2 km/h 15.3 km/h 78 % 0 mm
07:59 13.1 °C 9.7 °C 998.5 hPa NNW 25.9 km/h 15.3 km/h 80 % 0 mm
08:04 13.1 °C 10.2 °C 998.2 hPa North 27.8 km/h 15.6 km/h 83 % 0 mm
08:09 12.8 °C 10.2 °C 998.5 hPa North 18.5 km/h 15.8 km/h 84 % 0 mm
08:14 12.6 °C 10.2 °C 998.5 hPa North 16.7 km/h 10.3 km/h 85 % 0 mm
08:19 12.4 °C 10.2 °C 998.9 hPa NW 18.5 km/h 7.4 km/h 86 % 0 mm
08:24 12.4 °C 10.3 °C 998.9 hPa North 16.7 km/h 14.3 km/h 87 % 0 mm
08:29 12.2 °C 10.3 °C 998.9 hPa NW 22.2 km/h 11.1 km/h 88 % 0 mm
08:34 12.2 °C 10.3 °C 998.9 hPa North 16.7 km/h 9.2 km/h 88 % 0 mm
08:39 12.1 °C 10.3 °C 998.9 hPa North 16.7 km/h 12.4 km/h 89 % 0.25 mm
08:44 12 °C 10.2 °C 999.2 hPa North 14.8 km/h 14.8 km/h 89 % 0.25 mm
08:49 12 °C 10.4 °C 999.5 hPa NW 11.1 km/h 6.9 km/h 90 % 0.76 mm
08:54 12.1 °C 10.6 °C 999.9 hPa North 11.1 km/h 5.8 km/h 91 % 0.76 mm
08:59 12.2 °C 10.9 °C 1000.6 hPa North 37 km/h 17.4 km/h 92 % 1.52 mm
09:04 12 °C 10.2 °C 1000.9 hPa WSW 42.6 km/h 26.4 km/h 89 % 2.29 mm
09:09 12.2 °C 10.2 °C 1000.9 hPa SW 20.4 km/h 17.1 km/h 88 % 2.29 mm
09:14 12.2 °C 10.2 °C 1000.9 hPa North 17.7 km/h 13.5 km/h 88 % 2.29 mm
09:19 12.1 °C 10.2 °C 1000.9 hPa West 24.1 km/h 14.2 km/h 88 % 2.29 mm
09:24 12.1 °C 10 °C 1001.2 hPa North 18.5 km/h 16.4 km/h 87 % 2.29 mm
09:29 12.1 °C 9.8 °C 1001.2 hPa North 20.4 km/h 13 km/h 86 % 2.29 mm
09:34 12.1 °C 9.6 °C 1001.2 hPa WSW 20.9 km/h 13.7 km/h 85 % 2.29 mm
09:39 12.2 °C 9.4 °C 1001.2 hPa SW 24.1 km/h 17.7 km/h 83 % 2.29 mm
09:44 12.4 °C 9.6 °C 1001.6 hPa WSW 20.9 km/h 13 km/h 83 % 2.29 mm
09:49 12.6 °C 9.4 °C 1001.6 hPa WSW 29.6 km/h 21.2 km/h 81 % 1.52 mm
09:54 12.7 °C 9.3 °C 1001.2 hPa SW 31.5 km/h 19.6 km/h 80 % 1.52 mm
09:59 12.8 °C 9.3 °C 1001.2 hPa North 22.2 km/h 17.2 km/h 79 % 0.76 mm
10:04 13 °C 9.6 °C 1001.6 hPa SSW 18.5 km/h 14.6 km/h 80 % 0.25 mm
10:09 12.9 °C 9.4 °C 1001.6 hPa WSW 31.5 km/h 21.2 km/h 79 % 0 mm
10:14 12.9 °C 9.3 °C 1001.9 hPa SSW 33.3 km/h 23.8 km/h 79 % 0 mm
10:19 12.9 °C 9.4 °C 1001.9 hPa SW 17.7 km/h 14.3 km/h 79 % 0 mm
10:24 13 °C 9.3 °C 1001.9 hPa SSW 20.9 km/h 15.6 km/h 78 % 0 mm
10:29 13.2 °C 9.3 °C 1001.9 hPa WSW 24.1 km/h 18 km/h 77 % 0 mm
10:34 13.4 °C 9.2 °C 1001.9 hPa North 24.1 km/h 16.1 km/h 76 % 0 mm
10:39 13.2 °C 9.2 °C 1001.9 hPa SW 25.9 km/h 17.2 km/h 77 % 0 mm
10:44 13 °C 9.1 °C 1001.9 hPa SW 25.9 km/h 23 km/h 77 % 0 mm
10:49 13.1 °C 9.1 °C 1001.9 hPa SSW 27.8 km/h 17.5 km/h 77 % 0 mm
10:54 13.2 °C 9.3 °C 1001.9 hPa SW 20.4 km/h 15.6 km/h 77 % 0 mm
10:59 13.5 °C 8.9 °C 1001.9 hPa SW 20.4 km/h 17.2 km/h 74 % 0 mm
11:04 13.9 °C 9.3 °C 1001.9 hPa SW 18.5 km/h 15 km/h 74 % 0 mm
11:09 14 °C 9.2 °C 1001.9 hPa SW 22.2 km/h 16.3 km/h 73 % 0 mm
11:14 14.2 °C 9.4 °C 1001.9 hPa North 17.7 km/h 10.6 km/h 73 % 0 mm
11:19 14.4 °C 8.8 °C 1001.9 hPa WSW 31.5 km/h 18.3 km/h 69 % 0 mm
11:24 14.4 °C 8.6 °C 1002.3 hPa SSW 29.6 km/h 16.6 km/h 68 % 0 mm
11:29 14.4 °C 8.6 °C 1002.3 hPa SW 18.5 km/h 9.3 km/h 68 % 0 mm
11:34 14.4 °C 8.6 °C 1002.3 hPa SW 29.6 km/h 11.6 km/h 68 % 0 mm
11:39 14.8 °C 8.1 °C 1002.3 hPa SSW 25.9 km/h 20.8 km/h 64 % 0 mm
11:44 14.6 °C 7.8 °C 1002.6 hPa SW 33.8 km/h 25.4 km/h 64 % 0 mm
11:49 12.8 °C 7.5 °C 1002.9 hPa WSW 33.3 km/h 23.8 km/h 70 % 0 mm
11:54 12.1 °C 7.3 °C 1002.9 hPa WSW 35.2 km/h 18.2 km/h 73 % 0 mm
11:59 12.1 °C 7.4 °C 1002.9 hPa SW 30.6 km/h 23.5 km/h 73 % 0 mm
12:04 12.4 °C 7.9 °C 1002.9 hPa SSW 29.6 km/h 20.4 km/h 74 % 0 mm
12:09 12.7 °C 8.2 °C 1002.9 hPa West 29 km/h 22 km/h 74 % 0 mm
12:14 13.3 °C 8.6 °C 1002.9 hPa SW 18.5 km/h 16.4 km/h 73 % 0 mm
12:19 13.7 °C 8.8 °C 1002.9 hPa WSW 31.5 km/h 20.3 km/h 72 % 0 mm
12:24 14.3 °C 8.9 °C 1002.6 hPa WSW 37 km/h 23.5 km/h 70 % 0 mm
12:29 14.7 °C 9.1 °C 1002.6 hPa WSW 24.1 km/h 12.4 km/h 69 % 0 mm
12:34 15.2 °C 8.4 °C 1002.9 hPa SW 35.4 km/h 31.5 km/h 64 % 0 mm
12:39 15.4 °C 8.4 °C 1002.6 hPa SW 33.3 km/h 21.7 km/h 63 % 0 mm
12:44 15.2 °C 8.2 °C 1002.9 hPa SSW 33.3 km/h 18.3 km/h 63 % 0 mm
12:49 14.9 °C 7.4 °C 1002.9 hPa WSW 31.5 km/h 22.5 km/h 61 % 0 mm
12:54 15.3 °C 6.6 °C 1002.9 hPa SSW 31.5 km/h 21.7 km/h 56 % 0 mm
12:59 15.8 °C 6.2 °C 1002.9 hPa West 38.9 km/h 26.2 km/h 53 % 0 mm
13:04 15.8 °C 6.2 °C 1002.9 hPa SW 35.2 km/h 23 km/h 53 % 0 mm
13:09 16 °C 6.2 °C 1002.9 hPa North 38.9 km/h 27.4 km/h 52 % 0 mm
13:14 16.2 °C 6.9 °C 1002.9 hPa WSW 38.9 km/h 27 km/h 54 % 0 mm
13:19 16.4 °C 6.8 °C 1002.9 hPa WSW 31.5 km/h 28.2 km/h 53 % 0 mm
13:24 16.3 °C 5.8 °C 1002.9 hPa WSW 38.9 km/h 22.7 km/h 50 % 0 mm
13:29 16.7 °C 6.2 °C 1002.9 hPa SSW 22.2 km/h 16.9 km/h 50 % 0 mm
13:34 17.1 °C 6.6 °C 1002.9 hPa SW 18.5 km/h 25.3 km/h 50 % 0 mm
13:39 16.3 °C 6.4 °C 1002.9 hPa SSW 27.8 km/h 14.5 km/h 52 % 0 mm
13:44 16.5 °C 5.4 °C 1002.9 hPa SW 33.3 km/h 26.7 km/h 48 % 0 mm
13:49 16.9 °C 6.2 °C 1002.9 hPa SW 38.6 km/h 30.9 km/h 49 % 0 mm
13:54 16.9 °C 5.8 °C 1002.9 hPa SSW 38.9 km/h 30.6 km/h 48 % 0 mm
13:59 16.4 °C 5.3 °C 1002.9 hPa WSW 29.6 km/h 23.5 km/h 48 % 0.25 mm
14:04 16.4 °C 4.7 °C 1002.9 hPa SW 29 km/h 22 km/h 46 % 0.25 mm
14:09 17.2 °C 4.8 °C 1002.9 hPa South 30.6 km/h 28.8 km/h 44 % 0.25 mm
14:14 17.3 °C 5.6 °C 1002.9 hPa SW 38.9 km/h 21.1 km/h 46 % 0.25 mm
14:19 17.5 °C 5.4 °C 1003.3 hPa SW 25.9 km/h 20.1 km/h 45 % 0.25 mm
14:24 17.2 °C 5.8 °C 1003.6 hPa SW 35.2 km/h 25.4 km/h 47 % 0.25 mm
14:29 17.1 °C 5.1 °C 1003.6 hPa SW 38.9 km/h 22.9 km/h 45 % 0.25 mm
14:34 16.7 °C 5.6 °C 1003.3 hPa SW 33.8 km/h 28.6 km/h 48 % 0.25 mm
14:39 16.7 °C 5.9 °C 1003.6 hPa WSW 37 km/h 24.8 km/h 49 % 0.25 mm
14:44 16.4 °C 5.4 °C 1003.6 hPa SW 38.9 km/h 31.9 km/h 48 % 0.25 mm
14:49 16.7 °C 5.3 °C 1003.6 hPa SSW 38.9 km/h 20.1 km/h 47 % 0.25 mm
14:54 16.8 °C 4.2 °C 1003.6 hPa SW 35.2 km/h 26.4 km/h 43 % 0.25 mm
14:59 16.4 °C 4.1 °C 1003.6 hPa SW 35.4 km/h 19.8 km/h 44 % 0 mm
15:04 16.3 °C 3.3 °C 1003.6 hPa SW 35.2 km/h 26.2 km/h 42 % 0 mm
15:09 16.7 °C 3.7 °C 1003.6 hPa WSW 31.5 km/h 17.2 km/h 42 % 0 mm
15:14 17.1 °C 3.7 °C 1003.6 hPa WSW 35.4 km/h 29.8 km/h 41 % 0 mm
15:19 17 °C 4.9 °C 1003.6 hPa SSW 40.7 km/h 29.9 km/h 45 % 0 mm
15:24 17.1 °C 4.7 °C 1003.6 hPa SSW 46.3 km/h 28.5 km/h 44 % 0 mm
15:29 17.3 °C 4.6 °C 1003.6 hPa SSW 40.7 km/h 21.9 km/h 43 % 0 mm
15:31 17.4 °C 3.7 °C 1003.6 hPa SW 37 km/h 31.5 km/h 40 % 0 mm
15:39 17 °C 2.2 °C 1003.6 hPa SSW 37 km/h 37 km/h 37 % 0 mm
15:44 17.5 °C 3.7 °C 1003.6 hPa SW 29 km/h 20.8 km/h 40 % 0 mm
15:49 17.5 °C 3.7 °C 1003.6 hPa North 38.9 km/h 26.9 km/h 40 % 0 mm
15:54 17.2 °C 4.5 °C 1003.6 hPa SSW 24.1 km/h 19.5 km/h 43 % 0 mm
15:59 16.6 °C 4.9 °C 1003.6 hPa SSW 27.8 km/h 21.4 km/h 46 % 0 mm
16:04 17.1 °C 4.7 °C 1003.9 hPa WSW 38.9 km/h 14.5 km/h 44 % 0 mm
16:09 17.8 °C 4.3 °C 1003.6 hPa SW 32.2 km/h 24.3 km/h 41 % 0 mm
16:14 17.8 °C 4 °C 1003.6 hPa SSW 35.4 km/h 27.8 km/h 40 % 0 mm
16:19 17.4 °C 3.3 °C 1003.9 hPa WSW 37 km/h 21.2 km/h 39 % 0 mm
16:24 17.8 °C 4.3 °C 1003.9 hPa SW 35.4 km/h 14.8 km/h 41 % 0 mm
16:29 17.7 °C 4.3 °C 1004.3 hPa SW 29.6 km/h 21.1 km/h 41 % 0 mm
16:34 17.4 °C 4 °C 1003.9 hPa North 22.2 km/h 18 km/h 41 % 0 mm
16:39 17.1 °C 5.1 °C 1004.3 hPa SSW 27.8 km/h 24.8 km/h 45 % 0 mm
16:44 17.1 °C 5.4 °C 1004.3 hPa WSW 31.5 km/h 22 km/h 46 % 0 mm
16:49 17.1 °C 5.4 °C 1004.3 hPa South 25.9 km/h 15.3 km/h 46 % 0 mm
16:54 17.2 °C 5.8 °C 1004.3 hPa South 20.4 km/h 22.9 km/h 47 % 0 mm
16:59 17.1 °C 5.9 °C 1004.6 hPa SSW 29 km/h 15.8 km/h 48 % 0 mm
17:04 16.7 °C 5.3 °C 1004.6 hPa SW 20.4 km/h 19.5 km/h 47 % 0 mm
17:09 16.6 °C 5.2 °C 1004.6 hPa SSW 38.9 km/h 23.3 km/h 47 % 0 mm
17:14 16.6 °C 5.5 °C 1004.6 hPa South 31.5 km/h 20.3 km/h 48 % 0 mm
17:19 16.5 °C 5.4 °C 1005 hPa SW 22.2 km/h 13.4 km/h 48 % 0 mm
17:24 16.4 °C 4.7 °C 1005 hPa SSW 27.8 km/h 20.6 km/h 46 % 0 mm
17:29 16.6 °C 4.9 °C 1005 hPa SW 31.5 km/h 18.2 km/h 46 % 0 mm
17:34 16.6 °C 4.9 °C 1005 hPa SW 24.1 km/h 14.5 km/h 46 % 0 mm
17:39 16.9 °C 5.2 °C 1005 hPa SW 27.8 km/h 10 km/h 46 % 0 mm
17:44 16.6 °C 5.6 °C 1005.3 hPa SSW 37 km/h 19.5 km/h 48 % 0 mm
17:49 16.6 °C 5.8 °C 1005.3 hPa SW 18.5 km/h 18.2 km/h 49 % 0 mm
17:54 16.9 °C 5.8 °C 1005.3 hPa SSW 27.8 km/h 23.7 km/h 48 % 0 mm
17:59 16.8 °C 5.1 °C 1005.3 hPa SSW 33.3 km/h 21.6 km/h 46 % 0 mm
18:04 16.6 °C 5.2 °C 1005.3 hPa SSW 20.4 km/h 17.7 km/h 47 % 0 mm
18:09 16.4 °C 5.4 °C 1005.6 hPa SSW 24.1 km/h 18.2 km/h 48 % 0 mm
18:14 16.3 °C 5.6 °C 1005.6 hPa SSW 25.9 km/h 17.2 km/h 49 % 0 mm
18:19 16.3 °C 5.9 °C 1005.6 hPa SW 20.4 km/h 15.8 km/h 50 % 0 mm
18:24 16.2 °C 5.8 °C 1005.6 hPa SSW 18.5 km/h 12.4 km/h 50 % 0 mm
18:29 16.4 °C 6.3 °C 1005.6 hPa SSW 30.6 km/h 24.6 km/h 51 % 0 mm
18:34 16.6 °C 5.8 °C 1005.6 hPa South 22.2 km/h 15.9 km/h 49 % 0 mm
18:39 16.5 °C 5.4 °C 1005.6 hPa SW 25.9 km/h 16.9 km/h 48 % 0 mm
18:44 16.7 °C 5.1 °C 1005.6 hPa SW 20.4 km/h 16.7 km/h 46 % 0 mm
18:49 16.6 °C 4.9 °C 1005.6 hPa South 20.4 km/h 19.8 km/h 46 % 0 mm
18:54 16.4 °C 4.8 °C 1006 hPa SSW 31.5 km/h 26.4 km/h 46 % 0 mm
18:59 16.3 °C 4.7 °C 1006 hPa SSW 30.6 km/h 21.6 km/h 46 % 0 mm
19:04 16.2 °C 5.1 °C 1006.3 hPa South 27.4 km/h 20.3 km/h 48 % 0 mm
19:09 16.2 °C 5.4 °C 1006.3 hPa North 24.1 km/h 20.1 km/h 49 % 0 mm
19:14 16 °C 5.8 °C 1006.3 hPa SSW 22.2 km/h 10.6 km/h 51 % 0 mm
19:19 15.8 °C 5.9 °C 1006.7 hPa South 24.1 km/h 20.8 km/h 52 % 0 mm
19:24 15.8 °C 6.2 °C 1006.7 hPa North 20.4 km/h 13 km/h 53 % 0 mm
19:29 15.8 °C 6.2 °C 1006.7 hPa SSW 31.5 km/h 18.8 km/h 53 % 0 mm
19:34 15.6 °C 6.3 °C 1006.7 hPa SSW 16.7 km/h 10.5 km/h 54 % 0 mm
19:36 15.5 °C 5.9 °C 1006.7 hPa South 25.9 km/h 10.9 km/h 53 % 0 mm
19:44 15.3 °C 6.1 °C 1006.7 hPa South 22.2 km/h 13.7 km/h 54 % 0 mm
19:49 15.2 °C 5.9 °C 1007 hPa SSW 24.1 km/h 16.7 km/h 54 % 0 mm
19:54 15.1 °C 5.8 °C 1007 hPa SSW 20.4 km/h 13.2 km/h 54 % 0 mm
19:59 14.9 °C 6 °C 1007 hPa SSW 20.9 km/h 9.8 km/h 55 % 0 mm
20:04 14.7 °C 6 °C 1007.3 hPa SSW 24.1 km/h 21.2 km/h 56 % 0 mm
20:09 14.6 °C 6.1 °C 1007.3 hPa SW 22.2 km/h 16.4 km/h 57 % 0 mm
20:14 14.3 °C 6.2 °C 1007.3 hPa South 22.2 km/h 16.6 km/h 58 % 0 mm
20:19 14.2 °C 6.3 °C 1007.3 hPa South 16.7 km/h 6.4 km/h 59 % 0 mm
20:24 14.1 °C 6.2 °C 1007.7 hPa SSW 18.5 km/h 7.6 km/h 59 % 0 mm
20:29 13.9 °C 6.3 °C 1007.3 hPa SSW 13 km/h 9.3 km/h 60 % 0 mm
20:34 13.9 °C 6.2 °C 1007.7 hPa SSW 13 km/h 8.7 km/h 60 % 0 mm
20:39 13.8 °C 6.2 °C 1007.7 hPa SSW 13 km/h 7.4 km/h 60 % 0 mm
20:44 13.7 °C 6.1 °C 1007.7 hPa North 18.5 km/h 16.3 km/h 60 % 0 mm
20:49 13.6 °C 6 °C 1007.7 hPa SSW 16.7 km/h 11.4 km/h 60 % 0 mm
20:54 13.5 °C 6.1 °C 1008 hPa SSW 18.5 km/h 5.3 km/h 61 % 0 mm
20:59 13.4 °C 6.1 °C 1008 hPa SSW 13 km/h 8.5 km/h 61 % 0 mm
21:04 13.3 °C 6.2 °C 1008 hPa SSW 13 km/h 10.6 km/h 62 % 0 mm
21:09 13.2 °C 6.1 °C 1008 hPa SSW 16.1 km/h 10.5 km/h 62 % 0 mm
21:14 13.1 °C 6.2 °C 1008 hPa SSW 13 km/h 8.7 km/h 63 % 0 mm
21:19 13.1 °C 6.2 °C 1008 hPa SSW 9.3 km/h 6.3 km/h 63 % 0 mm
21:24 12.9 °C 6.3 °C 1008 hPa SSW 6.4 km/h 5 km/h 64 % 0 mm
21:29 12.8 °C 6.2 °C 1008 hPa SSW 11.1 km/h 5.8 km/h 64 % 0 mm
21:34 12.7 °C 6.3 °C 1008 hPa SSW 9.3 km/h 6.3 km/h 65 % 0 mm
21:39 12.6 °C 6.2 °C 1008 hPa SSW 11.3 km/h 9.3 km/h 65 % 0 mm
21:44 12.5 °C 6.3 °C 1008.4 hPa SSW 8 km/h 7.6 km/h 66 % 0 mm
21:49 12.4 °C 6.3 °C 1008.4 hPa SSW 5.6 km/h 4 km/h 66 % 0 mm
21:54 12.3 °C 6.2 °C 1008.4 hPa SSW 1.9 km/h 0.8 km/h 66 % 0 mm
21:59 12.2 °C 6.3 °C 1008.4 hPa North 7.4 km/h 1.6 km/h 67 % 0 mm
22:04 12.1 °C 6.2 °C 1008.4 hPa North 9.3 km/h 4.3 km/h 67 % 0 mm
22:09 12.1 °C 6.1 °C 1008.7 hPa SSW 1.9 km/h 1.6 km/h 67 % 0 mm
22:14 11.9 °C 6.2 °C 1008.7 hPa SSW 5.6 km/h 3.7 km/h 68 % 0 mm
22:19 11.8 °C 6.1 °C 1008.7 hPa SSW 6.4 km/h 4.8 km/h 68 % 0 mm
22:24 11.8 °C 6.3 °C 1008.7 hPa SSW 5.6 km/h 4.2 km/h 69 % 0 mm
22:29 11.7 °C 6.2 °C 1009 hPa SSW 3.7 km/h 2.9 km/h 69 % 0 mm
22:34 11.6 °C 6.1 °C 1009 hPa SSW 3.7 km/h 2.1 km/h 69 % 0 mm
22:39 11.5 °C 6.2 °C 1009 hPa SSW 5.6 km/h 2.9 km/h 70 % 0 mm
22:44 11.4 °C 6.2 °C 1009 hPa SSW 6.4 km/h 3.1 km/h 70 % 0 mm
22:49 11.4 °C 6.1 °C 1009 hPa SSW 7.4 km/h 5.3 km/h 70 % 0 mm
22:54 11.4 °C 6.2 °C 1009.4 hPa SSW 7.4 km/h 5 km/h 70 % 0 mm
22:59 11.5 °C 6 °C 1009.4 hPa SSW 5.6 km/h 5.5 km/h 69 % 0 mm
23:04 11.6 °C 6.1 °C 1009.4 hPa North 11.3 km/h 10.8 km/h 69 % 0 mm
23:09 11.7 °C 5.9 °C 1009.4 hPa SSW 11.1 km/h 6.8 km/h 68 % 0 mm
23:14 11.7 °C 5.9 °C 1009 hPa SSW 11.1 km/h 8 km/h 68 % 0 mm
23:19 11.7 °C 5.9 °C 1009.4 hPa SSW 7.4 km/h 5.3 km/h 68 % 0 mm
23:24 11.6 °C 5.8 °C 1009.4 hPa SSW 11.1 km/h 6 km/h 68 % 0 mm
23:29 11.6 °C 5.8 °C 1009.4 hPa North 7.4 km/h 4 km/h 68 % 0 mm
23:34 11.6 °C 5.8 °C 1009.4 hPa North 5.6 km/h 4.8 km/h 68 % 0 mm
23:39 11.5 °C 5.8 °C 1009.4 hPa SSW 11.1 km/h 6.8 km/h 68 % 0 mm
23:44 11.5 °C 5.8 °C 1009.4 hPa North 9.3 km/h 5.1 km/h 68 % 0 mm
23:49 11.4 °C 5.7 °C 1009.4 hPa SSW 5.6 km/h 3.9 km/h 68 % 0 mm
23:54 11.4 °C 5.9 °C 1009.4 hPa SSW 9.3 km/h 5.3 km/h 69 % 0 mm
23:59 11.3 °C 5.8 °C 1009.4 hPa SSW 3.7 km/h 1.3 km/h 69 % 0 mm
Ararat Weather
Compliments of Weather Underground - 2.5 mb
Click here to send mail.


ABOUT

Live weather data from Ararat, Victoria, Australia, 3377
Data uploaded from Cumulus every 5 minutes to Weather Underground.
This site then downloads the raw data for formatting and display.
Metric and imperial data can be displayed. Graphs and historical data available.
Includes Sun and Moon times and rain image live from BOM.

Check out Ararat Weather on Facebook, Twitter and Google +

Help support ongoing costs by checking out the ads





Follow @AraratWeather